x

Great Slave Lake (45141) Wave Buoy

9:00pm - Wed 2nd Sep 2015 All times are UTC.

  • Sig Wave height 1.6ft
  • Peak Period 15s
  • Wind
    7mph, 9mph gusts
  • Sea Temp 54°f
  • Air Temp 50°f
  • Sea Pressure 1013.2mb

More Historic Weather Station data

Upgrade to MSW Pro to gain access to the past 30 days of data for over 8000 Wavebouys and Weather Stations around the globe.

Join Pro

Comparision Forecast

View Surf forecast
   
Wed 09/02 9:00pm 1.6ft 15s 7 9 mph 1013.2mb 54f 50f
8:00pm 2ft 15s 9 11 mph 1012.9mb 54f 48f
7:00pm 2.5ft 15s 11 13 mph 1012.4mb 54f 46f
5:00pm 3ft 15s 16 18 mph 1012.1mb 54f 44f
4:00pm 3ft 15s 18 22 mph 1011.5mb 54f 44f
3:00pm 3.5ft 4s 18 22 mph 1010.9mb 54f 43f
2:00pm 3.5ft 15s 18 22 mph 1010.4mb 54f 43f
1:00pm 3.5ft 4s 18 22 mph 1009.8mb 54f 43f
12:00pm 3ft 4s 18 20 mph 1009.6mb 54f 43f
11:00am 3.5ft 14s 18 22 mph 1009.1mb 54f 45f
10:00am 3ft 4s 20 25 mph 1008.2mb 54f 46f
9:00am 2.5ft 4s 18 20 mph 1008mb 54f 46f
8:00am 2.5ft 15s 16 18 mph 1007.4mb 54f 47f
7:00am 2.5ft 13s 16 18 mph 1006.9mb 54f 48f
6:00am 2.5ft 3s 16 18 mph 1006.4mb 54f 49f
5:00am 2.5ft 3s 16 18 mph 1006mb 54f 51f
4:00am 2ft 14s 18 20 mph 1005.2mb 54f 51f
3:00am 2ft 15s 18 20 mph 1004.6mb 54f 53f
2:00am 1.6ft 15s 13 18 mph 1004.2mb 55f 53f
1:00am 1.6ft 15s 13 16 mph 1003.5mb 55f 54f
12:00am 1.3ft 15s 13 16 mph 1002.9mb 55f 53f
Tue 09/01 11:00pm 1ft 15s 16 18 mph 1002.3mb 55f 52f
10:00pm 1ft 15s 11 13 mph 1002mb 55f 51f
9:00pm 1ft 15s 11 13 mph 1002mb 55f 50f
8:00pm 1.3ft 15s 7 9 mph 1002.1mb 55f 49f
7:00pm 1.6ft 14s 9 11 mph 1001.6mb 55f 49f
6:00pm 1.6ft 15s 9 11 mph 1000.9mb 54f 48f
5:00pm 2ft 15s 11 13 mph 1000.3mb 54f 48f
4:00pm 2.5ft 15s 11 13 mph 999.7mb 54f 48f
3:00pm 2ft 3s 13 16 mph 999.4mb 54f 48f
2:00pm 2.5ft 14s 11 16 mph 998.6mb 54f 49f
1:00pm 2.5ft 13s 13 18 mph 998mb 54f 51f
12:00pm 2.5ft 15s 13 16 mph 997.4mb 54f 51f
11:00am 1.6ft 15s 18 20 mph 996.8mb 55f 51f
10:00am 1.6ft 15s 11
mph
996.2mb 55f 52f
9:00am 2ft 4s 9 13 mph 995.9mb 55f 52f
8:00am 2.5ft 4s 13 16 mph 995.7mb 55f 52f
7:00am 3ft 14s 13 18 mph 995.1mb 55f 53f
6:00am 3.5ft 4s 18 20 mph 994.5mb 55f 54f
5:00am 3ft 4s 20 25 mph 993.8mb 55f 55f
4:00am  -   -  18
mph
- - 56f
3:00am 2.5ft 5s 7 9 mph 993.8mb 55f 56f
2:00am 3ft 5s 7 9 mph 993mb 55f 57f
1:00am  -   -  13
mph
992.7mb - 57f
12:00am 3.5ft 4s 18 20 mph 992.4mb 55f 58f
Mon 08/31 10:00pm 2.5ft 4s 16 20 mph 990.4mb 56f 60f
9:00pm 2.5ft 4s 16 18 mph 989.4mb 56f 60f
8:00pm 2ft 15s 11 16 mph 988.7mb 56f 60f
7:00pm 1.6ft 15s 13 18 mph 988.3mb 55f 59f
6:00pm 1.6ft 3s 9 11 mph 988.1mb 55f 58f
5:00pm 1.6ft 14s 11 13 mph 987.9mb 55f 58f
4:00pm 2ft 15s 11 13 mph 987.9mb 55f 57f
3:00pm 2.5ft 4s 11 13 mph 987.9mb 55f 57f
2:00pm 2.5ft 4s 13 16 mph 987.7mb 55f 56f
1:00pm 2.5ft 15s 20 22 mph 987.6mb 55f 56f
12:00pm 2ft 15s 18 20 mph 987.5mb 55f 57f
11:00am 2.5ft 15s 13 16 mph 987.9mb 54f 56f
10:00am 2.5ft 15s 13 18 mph 987.7mb 54f 57f
9:00am 2.5ft 15s 16 20 mph 987.6mb 54f 58f
8:00am 1.6ft 15s 16 18 mph 987.5mb 54f 58f
7:00am 1.3ft 15s 13 16 mph 987.6mb 55f 59f
6:00am 1.6ft 14s 9
mph
987.9mb 55f 58f
5:00am 2ft 15s 13 16 mph 987.8mb 55f 60f
4:00am 1.6ft 14s 13 16 mph 987.9mb 55f 60f
3:00am 1.6ft 3s 11 13 mph 987.6mb 55f 61f
2:00am 2ft 14s 9 11 mph 987.6mb 55f 61f
1:00am 2.5ft 4s 9
mph
987.5mb 55f 61f
12:00am 2.5ft 4s 7 9 mph 987.5mb 55f 62f
Sun 08/30 11:00pm 2ft 15s 9 16 mph 987.6mb 55f 63f
10:00pm 2ft 15s 9 11 mph 987.8mb 55f 62f
9:00pm 2.5ft 5s 9 11 mph 988mb 55f 62f
8:00pm 2.5ft 5s 9
mph
988.2mb 55f 61f
7:00pm 3ft 5s 9 13 mph 988.4mb 55f 61f
6:00pm 3.5ft 5s 16 18 mph 988.8mb 55f 59f
5:00pm 3.5ft 5s 16 18 mph 989.4mb 55f 58f
4:00pm 3.5ft 5s 18 20 mph 990.1mb 54f 58f
2:00pm  -   -  20
mph
- - 56f
1:00pm 3ft 5s 20 25 mph 991.2mb 54f 56f
12:00pm 3ft 5s 16 20 mph 992mb 54f 57f
11:00am 3.5ft 5s 16 18 mph 992.7mb 54f 57f
10:00am 3.5ft 5s 16 18 mph 992.9mb 54f 58f
9:00am 3.5ft 4s 18 22 mph 993.8mb 54f 58f
8:00am 3.5ft 4s 20 22 mph 994.4mb 55f 58f
7:00am 3.5ft 5s 18 20 mph 996mb 55f 58f
6:00am 3.5ft 5s 20 22 mph 997mb 55f 59f
5:00am 3.5ft 5s 18 22 mph 998mb 55f 58f
4:00am 4ft 5s 18
mph
998.6mb 55f 59f
3:00am 3.5ft 4s 20
mph
999.1mb 55f 58f
2:00am 4ft 4s 20 25 mph 999.9mb 55f 57f
1:00am 3.5ft 4s 22 25 mph 1000.3mb 55f 56f
12:00am 3.5ft 4s 20 25 mph 1001.2mb 55f 56f
Sat 08/29 11:00pm  -   -  18
mph
1002.1mb - 55f